sensor_id;sensor_type;location;lat;lon;timestamp;temperature;humidity
17887;DHT22;9069;52.044;7.472;2023-09-18T00:01:52;23.50;94.90
17887;DHT22;9069;52.044;7.472;2023-09-18T00:04:19;23.50;95.10
17887;DHT22;9069;52.044;7.472;2023-09-18T00:06:45;23.50;95.20
17887;DHT22;9069;52.044;7.472;2023-09-18T00:09:12;23.40;95.20
17887;DHT22;9069;52.044;7.472;2023-09-18T00:11:40;23.40;95.40
17887;DHT22;9069;52.044;7.472;2023-09-18T00:14:10;23.40;95.40
17887;DHT22;9069;52.044;7.472;2023-09-18T00:16:37;23.40;95.60
17887;DHT22;9069;52.044;7.472;2023-09-18T00:19:23;23.30;95.50
17887;DHT22;9069;52.044;7.472;2023-09-18T00:21:50;23.30;95.70
17887;DHT22;9069;52.044;7.472;2023-09-18T00:24:19;23.20;95.80
17887;DHT22;9069;52.044;7.472;2023-09-18T00:26:45;23.30;95.90
17887;DHT22;9069;52.044;7.472;2023-09-18T00:29:14;23.10;95.80
17887;DHT22;9069;52.044;7.472;2023-09-18T00:31:41;23.20;96.00
17887;DHT22;9069;52.044;7.472;2023-09-18T00:34:09;23.10;96.00
17887;DHT22;9069;52.044;7.472;2023-09-18T00:36:36;23.10;96.10
17887;DHT22;9069;52.044;7.472;2023-09-18T00:39:04;23.10;96.20
17887;DHT22;9069;52.044;7.472;2023-09-18T00:41:32;23.10;96.30
17887;DHT22;9069;52.044;7.472;2023-09-18T00:43:59;23.10;96.30
17887;DHT22;9069;52.044;7.472;2023-09-18T00:46:27;23.00;96.40
17887;DHT22;9069;52.044;7.472;2023-09-18T00:48:54;23.00;96.50
17887;DHT22;9069;52.044;7.472;2023-09-18T00:51:21;23.00;96.50
17887;DHT22;9069;52.044;7.472;2023-09-18T00:53:48;22.90;96.50
17887;DHT22;9069;52.044;7.472;2023-09-18T00:56:15;22.90;96.50
17887;DHT22;9069;52.044;7.472;2023-09-18T00:58:43;22.90;96.60
17887;DHT22;9069;52.044;7.472;2023-09-18T01:01:11;22.90;96.60
17887;DHT22;9069;52.044;7.472;2023-09-18T01:03:38;22.90;96.60
17887;DHT22;9069;52.044;7.472;2023-09-18T01:06:05;22.80;96.60
17887;DHT22;9069;52.044;7.472;2023-09-18T01:08:32;22.80;96.60
17887;DHT22;9069;52.044;7.472;2023-09-18T01:13:55;22.80;97.00
17887;DHT22;9069;52.044;7.472;2023-09-18T01:16:41;22.80;97.10
17887;DHT22;9069;52.044;7.472;2023-09-18T01:19:12;22.80;96.90
17887;DHT22;9069;52.044;7.472;2023-09-18T01:21:38;22.70;96.70
17887;DHT22;9069;52.044;7.472;2023-09-18T01:24:05;22.70;96.70
17887;DHT22;9069;52.044;7.472;2023-09-18T01:26:32;22.70;96.80
17887;DHT22;9069;52.044;7.472;2023-09-18T01:28:59;22.70;96.80
17887;DHT22;9069;52.044;7.472;2023-09-18T01:31:26;22.70;96.80
17887;DHT22;9069;52.044;7.472;2023-09-18T01:33:54;22.70;96.80
17887;DHT22;9069;52.044;7.472;2023-09-18T01:36:22;22.60;96.80
17887;DHT22;9069;52.044;7.472;2023-09-18T01:38:50;22.70;96.80
17887;DHT22;9069;52.044;7.472;2023-09-18T01:41:17;22.60;96.90
17887;DHT22;9069;52.044;7.472;2023-09-18T01:43:44;22.60;96.90
17887;DHT22;9069;52.044;7.472;2023-09-18T01:46:13;22.60;97.00
17887;DHT22;9069;52.044;7.472;2023-09-18T01:48:46;22.60;97.00
17887;DHT22;9069;52.044;7.472;2023-09-18T01:51:14;22.60;97.10
17887;DHT22;9069;52.044;7.472;2023-09-18T01:53:42;22.60;97.00
17887;DHT22;9069;52.044;7.472;2023-09-18T01:56:09;22.60;97.10
17887;DHT22;9069;52.044;7.472;2023-09-18T01:58:36;22.70;97.10
17887;DHT22;9069;52.044;7.472;2023-09-18T02:01:03;22.50;97.10
17887;DHT22;9069;52.044;7.472;2023-09-18T02:03:31;22.50;97.20
17887;DHT22;9069;52.044;7.472;2023-09-18T02:06:18;22.50;97.20
17887;DHT22;9069;52.044;7.472;2023-09-18T02:08:45;22.50;97.20
17887;DHT22;9069;52.044;7.472;2023-09-18T02:11:13;22.50;97.20
17887;DHT22;9069;52.044;7.472;2023-09-18T02:13:40;22.50;97.70
17887;DHT22;9069;52.044;7.472;2023-09-18T02:16:07;22.50;97.50
17887;DHT22;9069;52.044;7.472;2023-09-18T02:18:34;22.50;97.60
17887;DHT22;9069;52.044;7.472;2023-09-18T02:21:00;22.50;97.70
17887;DHT22;9069;52.044;7.472;2023-09-18T02:23:27;22.50;97.70
17887;DHT22;9069;52.044;7.472;2023-09-18T02:25:58;22.50;97.80
17887;DHT22;9069;52.044;7.472;2023-09-18T02:28:25;22.50;98.00
17887;DHT22;9069;52.044;7.472;2023-09-18T02:30:52;22.50;97.90
17887;DHT22;9069;52.044;7.472;2023-09-18T02:33:19;22.50;97.90
17887;DHT22;9069;52.044;7.472;2023-09-18T02:35:46;22.40;97.90
17887;DHT22;9069;52.044;7.472;2023-09-18T02:38:13;22.40;98.00
17887;DHT22;9069;52.044;7.472;2023-09-18T02:40:39;22.40;98.00
17887;DHT22;9069;52.044;7.472;2023-09-18T02:43:06;22.50;98.10
17887;DHT22;9069;52.044;7.472;2023-09-18T02:45:33;22.50;98.10
17887;DHT22;9069;52.044;7.472;2023-09-18T02:48:00;22.50;98.10
17887;DHT22;9069;52.044;7.472;2023-09-18T02:50:28;22.50;98.10
17887;DHT22;9069;52.044;7.472;2023-09-18T02:52:55;22.50;98.10
17887;DHT22;9069;52.044;7.472;2023-09-18T02:55:22;22.50;98.10
17887;DHT22;9069;52.044;7.472;2023-09-18T02:57:49;22.50;98.10
17887;DHT22;9069;52.044;7.472;2023-09-18T03:00:16;22.50;98.10
17887;DHT22;9069;52.044;7.472;2023-09-18T03:02:52;22.50;98.10
17887;DHT22;9069;52.044;7.472;2023-09-18T03:05:19;22.50;98.10
17887;DHT22;9069;52.044;7.472;2023-09-18T03:07:47;22.40;98.20
17887;DHT22;9069;52.044;7.472;2023-09-18T03:10:14;22.40;98.50
17887;DHT22;9069;52.044;7.472;2023-09-18T03:12:42;22.50;98.20
17887;DHT22;9069;52.044;7.472;2023-09-18T03:15:09;22.40;98.20
17887;DHT22;9069;52.044;7.472;2023-09-18T03:17:40;22.40;98.20
17887;DHT22;9069;52.044;7.472;2023-09-18T03:20:09;22.40;98.30
17887;DHT22;9069;52.044;7.472;2023-09-18T03:22:36;22.40;98.30
17887;DHT22;9069;52.044;7.472;2023-09-18T03:25:03;22.40;98.20
17887;DHT22;9069;52.044;7.472;2023-09-18T03:27:29;22.40;98.20
17887;DHT22;9069;52.044;7.472;2023-09-18T03:29:58;22.40;98.20
17887;DHT22;9069;52.044;7.472;2023-09-18T03:32:26;22.40;98.20
17887;DHT22;9069;52.044;7.472;2023-09-18T03:34:53;22.40;98.20
17887;DHT22;9069;52.044;7.472;2023-09-18T03:37:21;22.40;98.20
17887;DHT22;9069;52.044;7.472;2023-09-18T03:39:48;22.40;98.20
17887;DHT22;9069;52.044;7.472;2023-09-18T03:42:14;22.40;98.20
17887;DHT22;9069;52.044;7.472;2023-09-18T03:44:41;22.40;98.20
17887;DHT22;9069;52.044;7.472;2023-09-18T03:47:09;22.40;98.10
17887;DHT22;9069;52.044;7.472;2023-09-18T03:49:36;22.40;98.20
17887;DHT22;9069;52.044;7.472;2023-09-18T03:52:02;22.40;98.30
17887;DHT22;9069;52.044;7.472;2023-09-18T03:54:29;22.40;98.40
17887;DHT22;9069;52.044;7.472;2023-09-18T03:56:57;22.30;98.40
17887;DHT22;9069;52.044;7.472;2023-09-18T03:59:23;22.30;98.40
17887;DHT22;9069;52.044;7.472;2023-09-18T04:01:51;22.30;98.40
17887;DHT22;9069;52.044;7.472;2023-09-18T04:04:18;22.30;98.40
17887;DHT22;9069;52.044;7.472;2023-09-18T04:06:45;22.30;98.50
17887;DHT22;9069;52.044;7.472;2023-09-18T04:09:12;22.30;98.40
17887;DHT22;9069;52.044;7.472;2023-09-18T04:11:41;22.30;98.40
17887;DHT22;9069;52.044;7.472;2023-09-18T04:14:08;22.30;98.40
17887;DHT22;9069;52.044;7.472;2023-09-18T04:16:35;22.30;98.40
17887;DHT22;9069;52.044;7.472;2023-09-18T04:19:03;22.40;98.30
17887;DHT22;9069;52.044;7.472;2023-09-18T04:21:30;22.40;98.30
17887;DHT22;9069;52.044;7.472;2023-09-18T04:23:57;22.40;98.30
17887;DHT22;9069;52.044;7.472;2023-09-18T04:26:25;22.40;98.40
17887;DHT22;9069;52.044;7.472;2023-09-18T04:28:57;22.50;98.30
17887;DHT22;9069;52.044;7.472;2023-09-18T04:31:24;22.50;98.30
17887;DHT22;9069;52.044;7.472;2023-09-18T04:33:51;22.50;98.20
17887;DHT22;9069;52.044;7.472;2023-09-18T04:36:19;22.50;98.20
17887;DHT22;9069;52.044;7.472;2023-09-18T04:38:45;22.50;98.20
17887;DHT22;9069;52.044;7.472;2023-09-18T04:41:14;22.50;98.10
17887;DHT22;9069;52.044;7.472;2023-09-18T04:43:41;22.60;98.10
17887;DHT22;9069;52.044;7.472;2023-09-18T04:46:09;22.60;98.00
17887;DHT22;9069;52.044;7.472;2023-09-18T04:48:35;22.60;98.00
17887;DHT22;9069;52.044;7.472;2023-09-18T04:51:04;22.70;98.00
17887;DHT22;9069;52.044;7.472;2023-09-18T04:53:31;22.70;98.20
17887;DHT22;9069;52.044;7.472;2023-09-18T04:55:59;22.70;98.30
17887;DHT22;9069;52.044;7.472;2023-09-18T04:58:29;22.70;98.20
17887;DHT22;9069;52.044;7.472;2023-09-18T05:00:57;22.70;98.20
17887;DHT22;9069;52.044;7.472;2023-09-18T05:03:26;22.80;98.30
17887;DHT22;9069;52.044;7.472;2023-09-18T05:05:57;22.70;98.30
17887;DHT22;9069;52.044;7.472;2023-09-18T05:08:23;22.70;98.30
17887;DHT22;9069;52.044;7.472;2023-09-18T05:10:50;22.70;98.30
17887;DHT22;9069;52.044;7.472;2023-09-18T05:13:17;22.70;98.70
17887;DHT22;9069;52.044;7.472;2023-09-18T05:15:44;22.70;98.40
17887;DHT22;9069;52.044;7.472;2023-09-18T05:18:11;22.70;98.40
17887;DHT22;9069;52.044;7.472;2023-09-18T05:20:39;22.70;98.40
17887;DHT22;9069;52.044;7.472;2023-09-18T05:23:06;22.70;98.50
17887;DHT22;9069;52.044;7.472;2023-09-18T05:25:34;22.70;98.60
17887;DHT22;9069;52.044;7.472;2023-09-18T05:28:04;22.70;98.70
17887;DHT22;9069;52.044;7.472;2023-09-18T05:30:33;22.70;98.80
17887;DHT22;9069;52.044;7.472;2023-09-18T05:33:02;22.70;99.20
17887;DHT22;9069;52.044;7.472;2023-09-18T05:37:59;22.70;99.10
17887;DHT22;9069;52.044;7.472;2023-09-18T05:40:26;22.70;99.10
17887;DHT22;9069;52.044;7.472;2023-09-18T05:42:54;22.70;99.20
17887;DHT22;9069;52.044;7.472;2023-09-18T05:45:21;22.70;99.30
17887;DHT22;9069;52.044;7.472;2023-09-18T05:47:50;22.70;99.30
17887;DHT22;9069;52.044;7.472;2023-09-18T05:50:17;22.70;99.40
17887;DHT22;9069;52.044;7.472;2023-09-18T05:52:45;22.70;99.40
17887;DHT22;9069;52.044;7.472;2023-09-18T05:55:13;22.60;99.50
17887;DHT22;9069;52.044;7.472;2023-09-18T05:57:40;22.70;99.50
17887;DHT22;9069;52.044;7.472;2023-09-18T06:00:07;22.70;99.50
17887;DHT22;9069;52.044;7.472;2023-09-18T06:02:37;22.70;99.60
17887;DHT22;9069;52.044;7.472;2023-09-18T06:05:04;22.70;99.60
17887;DHT22;9069;52.044;7.472;2023-09-18T06:07:32;22.70;99.70
17887;DHT22;9069;52.044;7.472;2023-09-18T06:09:59;22.70;99.80
17887;DHT22;9069;52.044;7.472;2023-09-18T06:12:26;22.70;99.80
17887;DHT22;9069;52.044;7.472;2023-09-18T06:14:53;22.80;99.80
17887;DHT22;9069;52.044;7.472;2023-09-18T06:17:20;22.80;99.90
17887;DHT22;9069;52.044;7.472;2023-09-18T06:19:47;22.80;99.80
17887;DHT22;9069;52.044;7.472;2023-09-18T06:22:13;22.90;99.90
17887;DHT22;9069;52.044;7.472;2023-09-18T06:24:40;22.90;99.90
17887;DHT22;9069;52.044;7.472;2023-09-18T06:27:07;22.90;99.90
17887;DHT22;9069;52.044;7.472;2023-09-18T06:29:34;22.90;99.90
17887;DHT22;9069;52.044;7.472;2023-09-18T06:32:02;22.90;99.90
17887;DHT22;9069;52.044;7.472;2023-09-18T06:34:29;23.00;99.90
17887;DHT22;9069;52.044;7.472;2023-09-18T06:36:55;23.00;99.90
17887;DHT22;9069;52.044;7.472;2023-09-18T06:39:22;23.00;99.90
17887;DHT22;9069;52.044;7.472;2023-09-18T06:41:53;23.00;99.90
17887;DHT22;9069;52.044;7.472;2023-09-18T06:44:20;23.10;99.90
17887;DHT22;9069;52.044;7.472;2023-09-18T06:46:49;23.10;99.90
17887;DHT22;9069;52.044;7.472;2023-09-18T06:49:16;23.20;99.90
17887;DHT22;9069;52.044;7.472;2023-09-18T06:51:43;23.20;99.90
17887;DHT22;9069;52.044;7.472;2023-09-18T06:54:10;23.50;99.90
17887;DHT22;9069;52.044;7.472;2023-09-18T06:56:37;23.30;99.90
17887;DHT22;9069;52.044;7.472;2023-09-18T06:59:03;23.30;99.90
17887;DHT22;9069;52.044;7.472;2023-09-18T07:01:30;23.40;99.90
17887;DHT22;9069;52.044;7.472;2023-09-18T07:03:58;23.40;99.90
17887;DHT22;9069;52.044;7.472;2023-09-18T07:06:27;23.50;99.90
17887;DHT22;9069;52.044;7.472;2023-09-18T07:08:54;23.50;99.90
17887;DHT22;9069;52.044;7.472;2023-09-18T07:11:21;23.50;99.90
17887;DHT22;9069;52.044;7.472;2023-09-18T07:13:51;23.60;99.90
17887;DHT22;9069;52.044;7.472;2023-09-18T07:16:18;23.60;99.90
17887;DHT22;9069;52.044;7.472;2023-09-18T07:18:45;23.60;99.90
17887;DHT22;9069;52.044;7.472;2023-09-18T07:21:12;23.70;99.90
17887;DHT22;9069;52.044;7.472;2023-09-18T07:23:40;23.70;99.90
17887;DHT22;9069;52.044;7.472;2023-09-18T07:26:07;23.70;99.80
17887;DHT22;9069;52.044;7.472;2023-09-18T07:28:34;23.80;99.80
17887;DHT22;9069;52.044;7.472;2023-09-18T07:31:05;23.90;99.80
17887;DHT22;9069;52.044;7.472;2023-09-18T07:33:32;23.90;99.60
17887;DHT22;9069;52.044;7.472;2023-09-18T07:36:00;23.90;99.70
17887;DHT22;9069;52.044;7.472;2023-09-18T07:38:28;23.90;99.70
17887;DHT22;9069;52.044;7.472;2023-09-18T07:40:55;24.00;99.70
17887;DHT22;9069;52.044;7.472;2023-09-18T07:43:24;24.00;99.70
17887;DHT22;9069;52.044;7.472;2023-09-18T07:45:53;24.00;99.50
17887;DHT22;9069;52.044;7.472;2023-09-18T07:48:21;24.00;99.40
17887;DHT22;9069;52.044;7.472;2023-09-18T07:50:48;24.10;99.50
17887;DHT22;9069;52.044;7.472;2023-09-18T07:53:16;24.20;99.50
17887;DHT22;9069;52.044;7.472;2023-09-18T07:55:43;24.20;99.40
17887;DHT22;9069;52.044;7.472;2023-09-18T07:58:10;24.20;99.30
17887;DHT22;9069;52.044;7.472;2023-09-18T08:00:38;24.30;99.30
17887;DHT22;9069;52.044;7.472;2023-09-18T08:03:05;24.30;99.40
17887;DHT22;9069;52.044;7.472;2023-09-18T08:05:32;24.30;99.60
17887;DHT22;9069;52.044;7.472;2023-09-18T08:07:59;24.40;99.70
17887;DHT22;9069;52.044;7.472;2023-09-18T08:10:27;24.40;99.70
17887;DHT22;9069;52.044;7.472;2023-09-18T08:12:54;24.50;99.60
17887;DHT22;9069;52.044;7.472;2023-09-18T08:15:22;24.60;99.50
17887;DHT22;9069;52.044;7.472;2023-09-18T08:17:49;24.70;99.20
17887;DHT22;9069;52.044;7.472;2023-09-18T08:20:16;24.70;99.10
17887;DHT22;9069;52.044;7.472;2023-09-18T08:22:43;24.80;98.90
17887;DHT22;9069;52.044;7.472;2023-09-18T08:25:11;24.90;98.70
17887;DHT22;9069;52.044;7.472;2023-09-18T08:27:39;24.90;98.50
17887;DHT22;9069;52.044;7.472;2023-09-18T08:30:09;25.00;98.20
17887;DHT22;9069;52.044;7.472;2023-09-18T08:32:37;25.00;98.00
17887;DHT22;9069;52.044;7.472;2023-09-18T08:35:05;25.00;97.80
17887;DHT22;9069;52.044;7.472;2023-09-18T08:37:32;25.10;97.60
17887;DHT22;9069;52.044;7.472;2023-09-18T08:39:59;25.00;97.40
17887;DHT22;9069;52.044;7.472;2023-09-18T08:42:40;25.00;97.30
17887;DHT22;9069;52.044;7.472;2023-09-18T08:45:09;25.00;96.80
17887;DHT22;9069;52.044;7.472;2023-09-18T08:47:40;25.00;96.90
17887;DHT22;9069;52.044;7.472;2023-09-18T08:50:11;25.00;96.60
17887;DHT22;9069;52.044;7.472;2023-09-18T08:52:39;24.90;96.60
17887;DHT22;9069;52.044;7.472;2023-09-18T08:55:06;24.90;96.60
17887;DHT22;9069;52.044;7.472;2023-09-18T08:57:36;24.90;96.60
17887;DHT22;9069;52.044;7.472;2023-09-18T09:00:05;24.90;96.50
17887;DHT22;9069;52.044;7.472;2023-09-18T09:02:34;24.80;96.40
17887;DHT22;9069;52.044;7.472;2023-09-18T09:05:02;24.80;96.40
17887;DHT22;9069;52.044;7.472;2023-09-18T09:07:29;24.80;96.50
17887;DHT22;9069;52.044;7.472;2023-09-18T09:09:58;24.80;96.60
17887;DHT22;9069;52.044;7.472;2023-09-18T09:12:51;24.70;96.50
17887;DHT22;9069;52.044;7.472;2023-09-18T09:15:24;24.70;96.00
17887;DHT22;9069;52.044;7.472;2023-09-18T09:18:01;24.70;96.60
17887;DHT22;9069;52.044;7.472;2023-09-18T09:20:28;24.70;96.60
17887;DHT22;9069;52.044;7.472;2023-09-18T09:23:03;24.80;96.70
17887;DHT22;9069;52.044;7.472;2023-09-18T09:25:31;24.80;96.50
17887;DHT22;9069;52.044;7.472;2023-09-18T09:28:04;24.90;96.70
17887;DHT22;9069;52.044;7.472;2023-09-18T09:30:33;24.90;96.50
17887;DHT22;9069;52.044;7.472;2023-09-18T09:33:00;25.00;96.60
17887;DHT22;9069;52.044;7.472;2023-09-18T09:35:33;25.00;96.50
17887;DHT22;9069;52.044;7.472;2023-09-18T09:38:10;25.00;96.30
17887;DHT22;9069;52.044;7.472;2023-09-18T09:40:42;25.10;95.70
17887;DHT22;9069;52.044;7.472;2023-09-18T09:43:11;25.10;95.80
17887;DHT22;9069;52.044;7.472;2023-09-18T09:45:40;25.10;95.80
17887;DHT22;9069;52.044;7.472;2023-09-18T09:48:08;25.20;95.90
17887;DHT22;9069;52.044;7.472;2023-09-18T09:50:45;25.20;95.90
17887;DHT22;9069;52.044;7.472;2023-09-18T09:53:16;25.30;95.40
17887;DHT22;9069;52.044;7.472;2023-09-18T09:55:43;25.30;95.80
17887;DHT22;9069;52.044;7.472;2023-09-18T09:58:11;25.40;95.80
17887;DHT22;9069;52.044;7.472;2023-09-18T10:00:50;25.40;95.70
17887;DHT22;9069;52.044;7.472;2023-09-18T10:03:19;25.40;95.10
17887;DHT22;9069;52.044;7.472;2023-09-18T10:05:51;25.60;95.60
17887;DHT22;9069;52.044;7.472;2023-09-18T10:08:24;25.50;95.40
17887;DHT22;9069;52.044;7.472;2023-09-18T10:10:56;25.60;95.00
17887;DHT22;9069;52.044;7.472;2023-09-18T10:13:40;25.60;95.20
17887;DHT22;9069;52.044;7.472;2023-09-18T10:16:09;25.60;94.70
17887;DHT22;9069;52.044;7.472;2023-09-18T10:24:20;25.80;94.20
17887;DHT22;9069;52.044;7.472;2023-09-18T10:26:57;25.80;94.50
17887;DHT22;9069;52.044;7.472;2023-09-18T10:29:26;25.90;94.50
17887;DHT22;9069;52.044;7.472;2023-09-18T10:31:53;26.10;94.90
17887;DHT22;9069;52.044;7.472;2023-09-18T10:34:21;26.10;94.40
17887;DHT22;9069;52.044;7.472;2023-09-18T10:36:50;26.20;94.30
17887;DHT22;9069;52.044;7.472;2023-09-18T10:39:17;26.20;94.10
17887;DHT22;9069;52.044;7.472;2023-09-18T10:41:54;26.20;94.10
17887;DHT22;9069;52.044;7.472;2023-09-18T10:44:23;26.30;93.40
17887;DHT22;9069;52.044;7.472;2023-09-18T10:46:51;26.30;93.70
17887;DHT22;9069;52.044;7.472;2023-09-18T10:49:22;26.30;93.40
17887;DHT22;9069;52.044;7.472;2023-09-18T10:51:49;26.30;93.50
17887;DHT22;9069;52.044;7.472;2023-09-18T10:54:26;26.30;93.60
17887;DHT22;9069;52.044;7.472;2023-09-18T10:56:55;26.30;93.00
17887;DHT22;9069;52.044;7.472;2023-09-18T10:59:22;26.40;93.20
17887;DHT22;9069;52.044;7.472;2023-09-18T11:01:50;26.40;93.40
17887;DHT22;9069;52.044;7.472;2023-09-18T11:04:20;26.40;93.30
17887;DHT22;9069;52.044;7.472;2023-09-18T11:09:28;26.50;92.60
17887;DHT22;9069;52.044;7.472;2023-09-18T11:14:43;26.60;93.50
17887;DHT22;9069;52.044;7.472;2023-09-18T11:17:34;26.70;93.60
17887;DHT22;9069;52.044;7.472;2023-09-18T11:22:36;26.90;93.40
17887;DHT22;9069;52.044;7.472;2023-09-18T11:25:30;27.00;93.10
17887;DHT22;9069;52.044;7.472;2023-09-18T11:27:57;27.10;92.50
17887;DHT22;9069;52.044;7.472;2023-09-18T11:30:25;27.20;92.60
17887;DHT22;9069;52.044;7.472;2023-09-18T11:32:52;27.20;92.10
17887;DHT22;9069;52.044;7.472;2023-09-18T11:35:22;27.30;92.20
17887;DHT22;9069;52.044;7.472;2023-09-18T11:38:04;27.30;91.30
17887;DHT22;9069;52.044;7.472;2023-09-18T11:40:34;27.40;91.10
17887;DHT22;9069;52.044;7.472;2023-09-18T11:46:00;27.50;90.30
17887;DHT22;9069;52.044;7.472;2023-09-18T11:48:31;27.50;90.40
17887;DHT22;9069;52.044;7.472;2023-09-18T11:51:02;27.50;90.60
17887;DHT22;9069;52.044;7.472;2023-09-18T11:53:34;27.50;90.10
17887;DHT22;9069;52.044;7.472;2023-09-18T11:56:03;27.60;89.30
17887;DHT22;9069;52.044;7.472;2023-09-18T11:58:30;27.60;90.00
17887;DHT22;9069;52.044;7.472;2023-09-18T12:00:56;27.70;90.50
17887;DHT22;9069;52.044;7.472;2023-09-18T12:03:36;27.60;90.30
17887;DHT22;9069;52.044;7.472;2023-09-18T12:06:03;27.60;89.70
17887;DHT22;9069;52.044;7.472;2023-09-18T12:08:36;27.60;89.00
17887;DHT22;9069;52.044;7.472;2023-09-18T12:11:06;27.60;89.30
17887;DHT22;9069;52.044;7.472;2023-09-18T12:13:33;27.60;87.30
17887;DHT22;9069;52.044;7.472;2023-09-18T12:16:02;27.60;87.80
17887;DHT22;9069;52.044;7.472;2023-09-18T12:18:32;27.60;86.80
17887;DHT22;9069;52.044;7.472;2023-09-18T12:21:02;27.60;86.60
17887;DHT22;9069;52.044;7.472;2023-09-18T12:23:41;27.60;87.00
17887;DHT22;9069;52.044;7.472;2023-09-18T12:26:11;27.60;86.30
17887;DHT22;9069;52.044;7.472;2023-09-18T12:28:41;27.60;87.10
17887;DHT22;9069;52.044;7.472;2023-09-18T12:31:14;27.60;86.80
17887;DHT22;9069;52.044;7.472;2023-09-18T12:33:42;27.60;85.00
17887;DHT22;9069;52.044;7.472;2023-09-18T12:36:19;27.60;85.90
17887;DHT22;9069;52.044;7.472;2023-09-18T12:38:56;27.60;85.30
17887;DHT22;9069;52.044;7.472;2023-09-18T12:41:25;27.60;84.80
17887;DHT22;9069;52.044;7.472;2023-09-18T12:43:58;27.60;85.60
17887;DHT22;9069;52.044;7.472;2023-09-18T12:46:25;27.60;86.40
17887;DHT22;9069;52.044;7.472;2023-09-18T12:48:52;27.60;86.30
17887;DHT22;9069;52.044;7.472;2023-09-18T12:51:28;27.60;86.20
17887;DHT22;9069;52.044;7.472;2023-09-18T12:54:01;27.70;83.90
17887;DHT22;9069;52.044;7.472;2023-09-18T12:56:40;27.70;84.40
17887;DHT22;9069;52.044;7.472;2023-09-18T12:59:07;27.80;83.80
17887;DHT22;9069;52.044;7.472;2023-09-18T13:01:46;27.80;84.50
17887;DHT22;9069;52.044;7.472;2023-09-18T13:04:15;27.80;83.50
17887;DHT22;9069;52.044;7.472;2023-09-18T13:06:42;27.80;83.30
17887;DHT22;9069;52.044;7.472;2023-09-18T13:09:16;27.80;82.80
17887;DHT22;9069;52.044;7.472;2023-09-18T13:11:55;27.70;81.30
17887;DHT22;9069;52.044;7.472;2023-09-18T13:14:22;27.70;81.50
17887;DHT22;9069;52.044;7.472;2023-09-18T13:16:49;27.60;83.00
17887;DHT22;9069;52.044;7.472;2023-09-18T13:19:17;27.60;83.30
17887;DHT22;9069;52.044;7.472;2023-09-18T13:21:50;27.50;83.10
17887;DHT22;9069;52.044;7.472;2023-09-18T13:24:29;27.60;82.60
17887;DHT22;9069;52.044;7.472;2023-09-18T13:26:57;27.50;82.50
17887;DHT22;9069;52.044;7.472;2023-09-18T13:29:25;27.50;83.50
17887;DHT22;9069;52.044;7.472;2023-09-18T13:31:52;27.50;83.60
17887;DHT22;9069;52.044;7.472;2023-09-18T13:34:19;27.50;83.60
17887;DHT22;9069;52.044;7.472;2023-09-18T13:36:46;27.50;83.80
17887;DHT22;9069;52.044;7.472;2023-09-18T13:39:13;27.50;83.40
17887;DHT22;9069;52.044;7.472;2023-09-18T13:41:41;27.50;83.40
17887;DHT22;9069;52.044;7.472;2023-09-18T13:44:08;27.50;82.70
17887;DHT22;9069;52.044;7.472;2023-09-18T13:46:37;27.50;82.80
17887;DHT22;9069;52.044;7.472;2023-09-18T13:49:04;27.50;82.80
17887;DHT22;9069;52.044;7.472;2023-09-18T13:51:32;27.50;83.00
17887;DHT22;9069;52.044;7.472;2023-09-18T13:53:59;27.50;82.50
17887;DHT22;9069;52.044;7.472;2023-09-18T13:56:26;27.50;81.90
17887;DHT22;9069;52.044;7.472;2023-09-18T13:58:55;27.50;80.70
17887;DHT22;9069;52.044;7.472;2023-09-18T14:01:23;27.40;80.00
17887;DHT22;9069;52.044;7.472;2023-09-18T14:03:52;27.40;79.80
17887;DHT22;9069;52.044;7.472;2023-09-18T14:06:20;27.40;80.30
17887;DHT22;9069;52.044;7.472;2023-09-18T14:08:47;27.40;80.40
17887;DHT22;9069;52.044;7.472;2023-09-18T14:11:14;27.40;80.40
17887;DHT22;9069;52.044;7.472;2023-09-18T14:13:41;27.50;80.30
17887;DHT22;9069;52.044;7.472;2023-09-18T14:16:09;27.50;79.90
17887;DHT22;9069;52.044;7.472;2023-09-18T14:18:37;27.50;80.10
17887;DHT22;9069;52.044;7.472;2023-09-18T14:21:04;27.50;80.00
17887;DHT22;9069;52.044;7.472;2023-09-18T14:23:31;27.50;80.20
17887;DHT22;9069;52.044;7.472;2023-09-18T14:26:01;27.50;80.00
17887;DHT22;9069;52.044;7.472;2023-09-18T14:28:28;27.50;79.70
17887;DHT22;9069;52.044;7.472;2023-09-18T14:30:54;27.50;79.00
17887;DHT22;9069;52.044;7.472;2023-09-18T14:33:21;27.50;78.40
17887;DHT22;9069;52.044;7.472;2023-09-18T14:35:49;27.50;78.30
17887;DHT22;9069;52.044;7.472;2023-09-18T14:38:17;27.50;78.10
17887;DHT22;9069;52.044;7.472;2023-09-18T14:40:44;27.50;78.20
17887;DHT22;9069;52.044;7.472;2023-09-18T14:43:10;27.50;77.80
17887;DHT22;9069;52.044;7.472;2023-09-18T14:45:38;27.60;77.50
17887;DHT22;9069;52.044;7.472;2023-09-18T14:48:06;27.60;77.30
17887;DHT22;9069;52.044;7.472;2023-09-18T14:50:33;27.60;77.00
17887;DHT22;9069;52.044;7.472;2023-09-18T14:53:01;27.60;76.50
17887;DHT22;9069;52.044;7.472;2023-09-18T14:55:30;27.50;75.40
17887;DHT22;9069;52.044;7.472;2023-09-18T14:57:57;27.50;75.30
17887;DHT22;9069;52.044;7.472;2023-09-18T15:00:23;27.50;75.10
17887;DHT22;9069;52.044;7.472;2023-09-18T15:02:51;27.50;74.90
17887;DHT22;9069;52.044;7.472;2023-09-18T15:05:18;27.40;74.90
17887;DHT22;9069;52.044;7.472;2023-09-18T15:07:45;27.40;75.10
17887;DHT22;9069;52.044;7.472;2023-09-18T15:10:11;27.40;75.00
17887;DHT22;9069;52.044;7.472;2023-09-18T15:12:38;27.50;75.10
17887;DHT22;9069;52.044;7.472;2023-09-18T15:15:08;27.40;75.10
17887;DHT22;9069;52.044;7.472;2023-09-18T15:17:35;27.40;75.10
17887;DHT22;9069;52.044;7.472;2023-09-18T15:20:04;27.40;74.80
17887;DHT22;9069;52.044;7.472;2023-09-18T15:22:32;27.40;74.40
17887;DHT22;9069;52.044;7.472;2023-09-18T15:24:58;27.40;74.60
17887;DHT22;9069;52.044;7.472;2023-09-18T15:27:26;27.30;74.40
17887;DHT22;9069;52.044;7.472;2023-09-18T15:29:53;27.30;74.60
17887;DHT22;9069;52.044;7.472;2023-09-18T15:32:20;27.30;74.60
17887;DHT22;9069;52.044;7.472;2023-09-18T15:34:48;27.30;74.50
17887;DHT22;9069;52.044;7.472;2023-09-18T15:37:15;27.30;74.50
17887;DHT22;9069;52.044;7.472;2023-09-18T15:39:43;27.30;74.40
17887;DHT22;9069;52.044;7.472;2023-09-18T15:42:09;27.20;74.30
17887;DHT22;9069;52.044;7.472;2023-09-18T15:44:36;27.10;74.10
17887;DHT22;9069;52.044;7.472;2023-09-18T15:47:03;27.10;73.70
17887;DHT22;9069;52.044;7.472;2023-09-18T15:49:31;27.10;73.70
17887;DHT22;9069;52.044;7.472;2023-09-18T15:51:58;27.00;73.30
17887;DHT22;9069;52.044;7.472;2023-09-18T15:54:27;27.00;73.30
17887;DHT22;9069;52.044;7.472;2023-09-18T15:56:54;26.90;73.10
17887;DHT22;9069;52.044;7.472;2023-09-18T15:59:21;26.90;72.60
17887;DHT22;9069;52.044;7.472;2023-09-18T16:01:48;26.90;72.30
17887;DHT22;9069;52.044;7.472;2023-09-18T16:04:15;26.80;71.90
17887;DHT22;9069;52.044;7.472;2023-09-18T16:06:42;26.80;71.60
17887;DHT22;9069;52.044;7.472;2023-09-18T16:09:12;26.80;71.40
17887;DHT22;9069;52.044;7.472;2023-09-18T16:11:39;26.70;71.20
17887;DHT22;9069;52.044;7.472;2023-09-18T16:14:13;26.70;72.00
17887;DHT22;9069;52.044;7.472;2023-09-18T16:16:40;26.70;72.00